Time;durP1;ratioP1;P1;durP2;ratioP2;P2;SDS_P1;SDS_P2;PMS_P1;PMS_P2;Temp;Humidity;BMP_temperature;BMP_pressure;BME280_temperature;BME280_humidity;BME280_pressure;Samples;Min_cycle;Max_cycle;Signal;HPM_P1;HPM_P2
2021/05/30 00:01:26;;;;;;;10.50;8.67;;;;;;;12.60;100.00;102886.14;1825506;78;26273;-73
2021/05/30 00:03:56;;;;;;;9.93;8.57;;;;;;;12.67;100.00;102892.40;1825214;78;26256;-73
2021/05/30 00:06:29;;;;;;;9.70;8.67;;;;;;;12.71;100.00;102894.98;1828949;77;26275;-72
2021/05/30 00:09:00;;;;;;;11.20;8.83;;;;;;;12.79;100.00;102887.61;1828898;78;26311;-72
2021/05/30 00:11:31;;;;;;;12.83;8.93;;;;;;;12.67;100.00;102888.22;1825268;78;26232;-71
2021/05/30 00:14:01;;;;;;;10.47;8.83;;;;;;;12.64;100.00;102883.15;1829065;78;26219;-71
2021/05/30 00:16:32;;;;;;;11.73;9.23;;;;;;;12.60;100.00;102886.69;1828903;78;26818;-73
2021/05/30 00:19:03;;;;;;;12.03;9.43;;;;;;;12.56;100.00;102888.28;1823433;78;26283;-73
2021/05/30 00:21:33;;;;;;;11.23;8.50;;;;;;;12.66;100.00;102880.13;1827341;78;26260;-71
2021/05/30 00:24:03;;;;;;;10.50;9.23;;;;;;;12.63;100.00;102890.36;1827318;78;26259;-73
2021/05/30 00:26:33;;;;;;;11.87;8.93;;;;;;;12.45;100.00;102885.00;1823784;78;26256;-72
2021/05/30 00:29:03;;;;;;;11.63;8.53;;;;;;;12.35;100.00;102880.06;1821402;78;26345;-71
2021/05/30 00:31:33;;;;;;;12.40;8.87;;;;;;;12.28;100.00;102883.52;1825861;78;26745;-73
2021/05/30 00:34:03;;;;;;;12.73;9.53;;;;;;;12.23;100.00;102887.63;1828684;78;26742;-73
2021/05/30 00:36:33;;;;;;;11.37;9.20;;;;;;;12.29;100.00;102886.61;1825237;78;26302;-73
2021/05/30 00:39:03;;;;;;;13.03;9.00;;;;;;;12.32;100.00;102888.35;1828880;78;26734;-71
2021/05/30 00:41:33;;;;;;;14.60;10.30;;;;;;;12.27;100.00;102884.64;1828977;78;26314;-71
2021/05/30 00:44:05;;;;;;;12.13;9.17;;;;;;;12.15;100.00;102888.01;1829070;78;26671;-71
2021/05/30 00:46:34;;;;;;;15.63;10.40;;;;;;;12.04;100.00;102886.92;1824757;78;26247;-71
2021/05/30 00:49:04;;;;;;;15.70;10.33;;;;;;;12.02;100.00;102886.89;1824336;78;26289;-71
2021/05/30 00:51:34;;;;;;;12.23;10.67;;;;;;;11.96;100.00;102888.70;1829023;78;26720;-71
2021/05/30 00:54:05;;;;;;;13.77;10.07;;;;;;;12.00;100.00;102894.63;1828897;78;26722;-73
2021/05/30 00:56:35;;;;;;;13.27;10.10;;;;;;;11.91;100.00;102892.77;1826844;78;26712;-73
2021/05/30 00:59:06;;;;;;;13.27;10.07;;;;;;;11.88;100.00;102893.26;1827469;78;26252;-73
2021/05/30 01:01:36;;;;;;;12.73;9.67;;;;;;;11.91;100.00;102890.52;1826937;78;26240;-73
2021/05/30 01:04:07;;;;;;;15.20;9.80;;;;;;;11.86;100.00;102882.36;1827237;78;26650;-72
2021/05/30 01:06:38;;;;;;;12.23;9.37;;;;;;;11.83;100.00;102887.57;1825023;77;26267;-71
2021/05/30 01:09:08;;;;;;;14.90;10.83;;;;;;;11.94;100.00;102885.88;1825105;78;26301;-72
2021/05/30 01:11:39;;;;;;;14.40;10.97;;;;;;;12.01;100.00;102885.19;1827379;78;26247;-72
2021/05/30 01:14:10;;;;;;;14.00;10.33;;;;;;;11.90;100.00;102879.92;1826812;78;26678;-71
2021/05/30 01:16:41;;;;;;;14.10;10.87;;;;;;;11.86;100.00;102885.14;1825139;78;26858;-70
2021/05/30 01:19:12;;;;;;;15.00;12.37;;;;;;;11.84;100.00;102887.34;1825637;78;26321;-73
2021/05/30 01:21:45;;;;;;;14.87;11.43;;;;;;;11.84;100.00;102886.48;1823613;78;26710;-71
2021/05/30 01:24:16;;;;;;;15.27;11.83;;;;;;;11.81;100.00;102885.02;1823589;78;26219;-71
2021/05/30 01:26:46;;;;;;;16.63;12.00;;;;;;;11.63;100.00;102882.91;1823687;78;26225;-72
2021/05/30 01:29:16;;;;;;;14.70;11.93;;;;;;;11.60;100.00;102885.61;1823718;78;26353;-71
2021/05/30 01:31:46;;;;;;;15.97;11.60;;;;;;;11.48;100.00;102887.55;1828402;78;26702;-72
2021/05/30 01:34:16;;;;;;;14.40;11.80;;;;;;;11.50;100.00;102888.71;1822212;78;26219;-73
2021/05/30 01:36:46;;;;;;;13.87;11.90;;;;;;;11.55;100.00;102886.05;1824456;78;26659;-73
2021/05/30 01:39:16;;;;;;;14.80;11.70;;;;;;;11.43;100.00;102888.27;1825015;78;26227;-71
2021/05/30 01:41:46;;;;;;;15.53;11.43;;;;;;;11.50;100.00;102885.39;1824559;78;26223;-71
2021/05/30 01:44:16;;;;;;;14.70;11.63;;;;;;;11.39;100.00;102882.89;1825976;78;26812;-71
2021/05/30 01:46:45;;;;;;;15.07;11.30;;;;;;;11.28;100.00;102888.45;1825010;78;26278;-72
2021/05/30 01:49:15;;;;;;;14.00;11.07;;;;;;;11.24;100.00;102884.46;1828726;78;26370;-71
2021/05/30 01:51:45;;;;;;;14.10;11.67;;;;;;;11.10;100.00;102877.42;1824991;78;26808;-72
2021/05/30 01:54:16;;;;;;;13.43;11.33;;;;;;;11.10;100.00;102875.48;1825292;78;26286;-72
2021/05/30 01:56:56;;;;;;;15.63;11.73;;;;;;;11.13;100.00;102878.31;1825045;78;26231;-73
2021/05/30 01:59:27;;;;;;;16.53;12.50;;;;;;;11.14;100.00;102880.02;1825753;78;26672;-72
2021/05/30 02:02:00;;;;;;;16.50;11.23;;;;;;;11.00;100.00;102877.99;1828816;78;26318;-71
2021/05/30 02:04:32;;;;;;;15.67;12.20;;;;;;;11.14;100.00;102875.84;1826471;78;26324;-72
2021/05/30 02:07:02;;;;;;;14.97;11.30;;;;;;;10.94;100.00;102879.82;1827562;77;26303;-72
2021/05/30 02:09:33;;;;;;;15.10;11.40;;;;;;;10.88;100.00;102871.02;1828869;78;26719;-71
2021/05/30 02:12:05;;;;;;;15.60;11.40;;;;;;;10.88;100.00;102877.13;1824786;78;26223;-72
2021/05/30 02:14:36;;;;;;;13.20;10.93;;;;;;;10.82;100.00;102873.92;1823490;78;26218;-72
2021/05/30 02:17:06;;;;;;;17.37;12.03;;;;;;;10.83;100.00;102871.42;1827276;78;26865;-71
2021/05/30 02:19:35;;;;;;;15.20;11.50;;;;;;;10.77;100.00;102869.08;1828649;78;26738;-72
2021/05/30 02:22:05;;;;;;;14.80;12.00;;;;;;;10.88;100.00;102871.56;1828683;78;26229;-72
2021/05/30 02:24:35;;;;;;;15.30;11.33;;;;;;;10.81;100.00;102875.85;1828690;78;26223;-72
2021/05/30 02:27:06;;;;;;;15.13;11.73;;;;;;;10.96;100.00;102874.84;1828702;78;26683;-72
2021/05/30 02:29:38;;;;;;;15.60;11.03;;;;;;;10.88;100.00;102876.59;1825013;78;26712;-72
2021/05/30 02:32:11;;;;;;;16.17;11.27;;;;;;;10.74;100.00;102875.09;1825385;78;26230;-73
2021/05/30 02:34:42;;;;;;;14.40;11.53;;;;;;;10.72;100.00;102881.98;1825006;78;26698;-72
2021/05/30 02:37:14;;;;;;;15.47;11.03;;;;;;;10.59;100.00;102883.56;1828816;78;26249;-72
2021/05/30 02:39:45;;;;;;;15.77;12.23;;;;;;;10.49;100.00;102891.92;1819763;78;26219;-70
2021/05/30 02:42:15;;;;;;;15.90;12.43;;;;;;;10.40;100.00;102888.30;1826732;78;26219;-72
2021/05/30 02:44:45;;;;;;;16.03;12.57;;;;;;;10.48;100.00;102885.23;1824971;78;26219;-72
2021/05/30 02:47:14;;;;;;;17.97;12.60;;;;;;;10.48;100.00;102888.01;1821990;78;26269;-71
2021/05/30 02:49:44;;;;;;;15.10;13.33;;;;;;;10.65;100.00;102889.05;1820724;78;26655;-71
2021/05/30 02:52:14;;;;;;;19.73;14.67;;;;;;;10.58;100.00;102888.80;1824952;78;26212;-72
2021/05/30 02:54:44;;;;;;;17.57;13.40;;;;;;;10.68;100.00;102889.09;1827959;78;26792;-71
2021/05/30 02:57:14;;;;;;;20.97;14.67;;;;;;;10.79;100.00;102882.72;1826084;78;26212;-71
2021/05/30 02:59:43;;;;;;;24.30;14.80;;;;;;;10.78;100.00;102888.81;1824554;78;26218;-70
2021/05/30 03:02:13;;;;;;;19.50;12.93;;;;;;;10.81;100.00;102887.52;1821929;78;26647;-71
2021/05/30 03:04:44;;;;;;;22.73;14.10;;;;;;;10.77;100.00;102880.73;1828700;78;26289;-72
2021/05/30 03:07:14;;;;;;;24.63;16.30;;;;;;;10.74;100.00;102884.00;1828703;78;26199;-72
2021/05/30 03:09:43;;;;;;;19.63;15.00;;;;;;;10.77;100.00;102884.36;1828627;77;26268;-72
2021/05/30 03:12:16;;;;;;;19.70;14.17;;;;;;;10.76;100.00;102885.98;1828716;78;26297;-71
2021/05/30 03:14:45;;;;;;;24.23;16.23;;;;;;;10.74;100.00;102885.39;1825274;78;26226;-71
2021/05/30 03:17:15;;;;;;;25.57;18.60;;;;;;;10.79;100.00;102884.11;1823818;78;26286;-71
2021/05/30 03:19:46;;;;;;;27.30;18.03;;;;;;;10.69;100.00;102890.27;1824916;78;26734;-70
2021/05/30 03:22:16;;;;;;;27.00;18.00;;;;;;;10.72;100.00;102887.54;1827320;78;26234;-72
2021/05/30 03:24:45;;;;;;;26.30;17.33;;;;;;;10.71;100.00;102884.45;1826505;78;26674;-72
2021/05/30 03:27:15;;;;;;;26.00;17.93;;;;;;;10.62;100.00;102881.69;1824938;78;26226;-71
2021/05/30 03:29:45;;;;;;;23.60;16.27;;;;;;;10.49;100.00;102888.29;1824982;78;26662;-71
2021/05/30 03:32:15;;;;;;;23.13;16.37;;;;;;;10.51;100.00;102891.70;1824969;78;26709;-70
2021/05/30 03:34:45;;;;;;;23.73;16.77;;;;;;;10.61;100.00;102889.75;1826189;78;26223;-71
2021/05/30 03:37:14;;;;;;;22.77;16.47;;;;;;;10.60;100.00;102889.44;1823948;78;26650;-71
2021/05/30 03:39:45;;;;;;;23.50;16.10;;;;;;;10.49;100.00;102887.75;1828703;78;26285;-72
2021/05/30 03:42:19;;;;;;;24.57;16.50;;;;;;;10.51;100.00;102887.53;1824616;78;26207;-71
2021/05/30 03:44:49;;;;;;;29.43;19.47;;;;;;;10.73;100.00;102884.53;1819970;78;26281;-73
2021/05/30 03:47:19;;;;;;;24.97;17.07;;;;;;;10.68;100.00;102885.78;1827503;78;26741;-72
2021/05/30 03:49:49;;;;;;;25.47;17.23;;;;;;;10.79;100.00;102886.34;1828650;78;26286;-71
2021/05/30 03:52:36;;;;;;;23.97;18.30;;;;;;;10.81;100.00;102882.80;1773070;81;33467;-72
2021/05/30 03:55:08;;;;;;;25.67;17.33;;;;;;;10.85;100.00;102882.63;1768414;81;26242;-72
2021/05/30 03:57:38;;;;;;;26.07;17.73;;;;;;;10.87;100.00;102879.59;1768455;81;26829;-72
2021/05/30 04:00:12;;;;;;;26.53;17.30;;;;;;;10.89;100.00;102884.39;1757108;81;939052;-73
2021/05/30 04:02:42;;;;;;;22.30;16.83;;;;;;;10.91;100.00;102880.27;1768737;81;26358;-71
2021/05/30 04:05:14;;;;;;;25.70;17.67;;;;;;;10.92;100.00;102886.14;1768478;81;26737;-73
2021/05/30 04:07:45;;;;;;;22.63;16.53;;;;;;;11.01;100.00;102888.58;1768456;81;26230;-72
2021/05/30 04:10:16;;;;;;;23.53;17.17;;;;;;;10.87;100.00;102882.38;1768563;80;26394;-70
2021/05/30 04:12:46;;;;;;;24.63;16.93;;;;;;;10.87;100.00;102882.38;1768544;81;26376;-71
2021/05/30 04:15:17;;;;;;;25.77;16.87;;;;;;;10.83;100.00;102877.84;1768436;81;26720;-72
2021/05/30 04:17:49;;;;;;;22.23;16.57;;;;;;;10.79;100.00;102885.50;1768500;81;26335;-70
2021/05/30 04:20:20;;;;;;;22.60;15.80;;;;;;;10.81;100.00;102886.98;1768421;81;26701;-70
2021/05/30 04:22:51;;;;;;;19.03;15.53;;;;;;;11.05;100.00;102889.80;1770127;79;26344;-71
2021/05/30 04:25:20;;;;;;;20.40;15.10;;;;;;;11.04;100.00;102886.73;1823424;78;26666;-71
2021/05/30 04:27:50;;;;;;;19.83;15.43;;;;;;;11.02;100.00;102892.52;1823429;78;26269;-71
2021/05/30 04:30:21;;;;;;;22.50;16.33;;;;;;;11.03;100.00;102892.84;1825729;78;26266;-71
2021/05/30 04:32:51;;;;;;;19.03;15.10;;;;;;;11.00;100.00;102896.07;1828357;78;26578;-73
2021/05/30 04:35:21;;;;;;;20.77;16.00;;;;;;;11.10;100.00;102896.88;1825668;78;26217;-72
2021/05/30 04:37:51;;;;;;;21.87;16.70;;;;;;;11.29;100.00;102893.79;1828754;78;26228;-73
2021/05/30 04:40:24;;;;;;;21.77;16.03;;;;;;;11.32;100.00;102898.02;1825124;78;26229;-71
2021/05/30 04:42:54;;;;;;;24.33;16.90;;;;;;;11.36;100.00;102895.91;1828749;78;26388;-72
2021/05/30 04:45:24;;;;;;;24.33;17.13;;;;;;;11.48;100.00;102891.72;1828728;78;26650;-72
2021/05/30 04:47:53;;;;;;;22.40;16.77;;;;;;;11.58;100.00;102898.09;1825036;78;26219;-71
2021/05/30 04:50:23;;;;;;;21.47;17.33;;;;;;;11.48;100.00;102896.44;1828782;78;26749;-70
2021/05/30 04:52:53;;;;;;;24.17;16.97;;;;;;;11.46;100.00;102895.31;1828735;78;26216;-72
2021/05/30 04:55:23;;;;;;;21.33;17.03;;;;;;;11.55;100.00;102898.01;1828678;78;26739;-70
2021/05/30 04:57:53;;;;;;;23.10;16.50;;;;;;;11.63;100.00;102902.39;1825035;78;26219;-73
2021/05/30 05:00:23;;;;;;;23.13;17.20;;;;;;;11.61;100.00;102905.95;1828849;78;26318;-71
2021/05/30 05:02:52;;;;;;;25.83;17.60;;;;;;;11.72;100.00;102906.54;1824989;78;26493;-71
2021/05/30 05:05:22;;;;;;;20.67;16.93;;;;;;;11.72;100.00;102899.00;1828747;78;26350;-71
2021/05/30 05:07:52;;;;;;;23.00;16.90;;;;;;;11.65;100.00;102905.22;1828732;78;26287;-70
2021/05/30 05:10:22;;;;;;;24.30;17.30;;;;;;;11.50;100.00;102900.70;1828695;77;26295;-73
2021/05/30 05:12:52;;;;;;;19.27;17.13;;;;;;;11.61;100.00;102908.73;1828731;78;26401;-73
2021/05/30 05:15:22;;;;;;;21.13;17.37;;;;;;;11.61;100.00;102905.41;1828268;78;26737;-71
2021/05/30 05:17:52;;;;;;;20.77;16.57;;;;;;;11.67;100.00;102911.41;1825761;78;26710;-71
2021/05/30 05:20:22;;;;;;;21.83;16.63;;;;;;;11.79;100.00;102911.42;1824951;78;26262;-71
2021/05/30 05:22:51;;;;;;;23.13;16.27;;;;;;;11.69;100.00;102908.36;1825016;78;26278;-73
2021/05/30 05:25:21;;;;;;;21.77;16.27;;;;;;;11.70;100.00;102902.56;1828752;78;27039;-73
2021/05/30 05:27:51;;;;;;;20.20;16.70;;;;;;;11.68;100.00;102903.33;1827020;78;26252;-71
2021/05/30 05:30:22;;;;;;;20.90;16.93;;;;;;;11.78;100.00;102907.80;1823281;78;26293;-71
2021/05/30 05:32:52;;;;;;;23.77;17.23;;;;;;;11.84;100.00;102911.01;1828772;78;26759;-71
2021/05/30 05:35:22;;;;;;;20.00;16.33;;;;;;;11.74;100.00;102905.19;1828734;78;26275;-71
2021/05/30 05:37:56;;;;;;;19.30;16.83;;;;;;;11.73;100.00;102913.23;1828767;78;26789;-70
2021/05/30 05:40:28;;;;;;;21.40;16.23;;;;;;;11.81;100.00;102916.19;1828810;78;26722;-73
2021/05/30 05:42:58;;;;;;;21.77;16.83;;;;;;;11.79;100.00;102912.28;1828734;78;26342;-70
2021/05/30 05:45:29;;;;;;;24.27;18.00;;;;;;;11.95;100.00;102909.28;1825536;78;26745;-73
2021/05/30 05:47:59;;;;;;;23.50;17.27;;;;;;;12.09;100.00;102913.51;1821083;78;26216;-72
2021/05/30 05:50:30;;;;;;;22.77;17.00;;;;;;;11.98;100.00;102918.53;1828820;78;26738;-73
2021/05/30 05:53:00;;;;;;;23.80;17.27;;;;;;;11.82;100.00;102918.74;1828754;78;26260;-71
2021/05/30 05:55:30;;;;;;;21.87;17.50;;;;;;;11.90;100.00;102917.52;1828706;78;26327;-71
2021/05/30 05:57:59;;;;;;;22.43;17.80;;;;;;;11.82;100.00;102911.78;1827939;78;26219;-71
2021/05/30 06:00:30;;;;;;;22.13;17.80;;;;;;;11.88;100.00;102911.91;1826029;78;26777;-73
2021/05/30 06:03:00;;;;;;;24.77;18.27;;;;;;;11.80;100.00;102913.12;1825032;78;26760;-72
2021/05/30 06:05:30;;;;;;;23.43;18.30;;;;;;;11.91;100.00;102910.86;1828759;78;26252;-73
2021/05/30 06:08:00;;;;;;;23.73;17.97;;;;;;;11.87;100.00;102908.27;1828707;78;26256;-71
2021/05/30 06:10:30;;;;;;;23.33;18.53;;;;;;;11.94;100.00;102913.73;1828672;77;26738;-73
2021/05/30 06:13:03;;;;;;;31.10;20.20;;;;;;;11.99;100.00;102909.64;1828743;78;26236;-73
2021/05/30 06:15:33;;;;;;;25.07;19.10;;;;;;;12.03;100.00;102909.45;1826760;78;26392;-70
2021/05/30 06:18:06;;;;;;;26.00;18.60;;;;;;;11.99;100.00;102916.60;1827231;78;26742;-70
2021/05/30 06:20:35;;;;;;;25.17;18.17;;;;;;;11.85;100.00;102918.83;1827015;78;26260;-71
2021/05/30 06:23:06;;;;;;;26.50;18.60;;;;;;;11.89;100.00;102919.17;1823403;78;26289;-73
2021/05/30 06:25:37;;;;;;;28.80;21.03;;;;;;;11.97;100.00;102918.80;1828830;78;26335;-73
2021/05/30 06:28:07;;;;;;;30.83;20.47;;;;;;;12.01;100.00;102922.25;1828715;78;26830;-70
2021/05/30 06:30:39;;;;;;;25.90;18.77;;;;;;;11.99;100.00;102918.84;1824986;78;26227;-73
2021/05/30 06:33:11;;;;;;;31.77;18.97;;;;;;;11.91;100.00;102922.01;1828695;78;26289;-71
2021/05/30 06:35:42;;;;;;;28.70;19.07;;;;;;;11.90;100.00;102921.70;1828703;78;26723;-71
2021/05/30 06:38:13;;;;;;;26.87;18.60;;;;;;;11.94;100.00;102921.51;1825109;78;26598;-72
2021/05/30 06:40:42;;;;;;;29.80;19.97;;;;;;;11.91;100.00;102920.61;1825001;78;26258;-71
2021/05/30 06:43:12;;;;;;;27.50;19.07;;;;;;;11.83;100.00;102930.73;1828812;78;26365;-72
2021/05/30 06:45:42;;;;;;;27.50;19.30;;;;;;;11.93;100.00;102932.38;1828696;78;26753;-71
2021/05/30 06:48:13;;;;;;;27.67;20.27;;;;;;;12.08;100.00;102930.45;1824993;78;26772;-73
2021/05/30 06:50:43;;;;;;;26.93;19.00;;;;;;;12.12;100.00;102929.73;1828703;78;26758;-73
2021/05/30 06:53:13;;;;;;;26.43;19.97;;;;;;;12.17;100.00;102924.81;1824986;78;26321;-72
2021/05/30 06:55:42;;;;;;;25.67;18.90;;;;;;;12.17;100.00;102926.20;1828729;78;26255;-73
2021/05/30 06:58:12;;;;;;;27.80;18.93;;;;;;;12.06;100.00;102923.77;1824943;78;26811;-71
2021/05/30 07:00:42;;;;;;;26.80;19.60;;;;;;;12.13;100.00;102920.28;1828251;78;26529;-71
2021/05/30 07:03:12;;;;;;;25.83;18.70;;;;;;;12.16;100.00;102923.11;1821968;78;26223;-72
2021/05/30 07:05:42;;;;;;;25.73;18.57;;;;;;;12.16;100.00;102924.50;1821280;78;26218;-72
2021/05/30 07:08:11;;;;;;;28.77;19.90;;;;;;;12.02;100.00;102925.34;1828826;78;26334;-73
2021/05/30 07:10:41;;;;;;;26.43;18.83;;;;;;;12.07;100.00;102928.22;1828728;78;26699;-71
2021/05/30 07:13:11;;;;;;;26.93;19.27;;;;;;;12.09;100.00;102925.20;1823471;78;26340;-73
2021/05/30 07:15:42;;;;;;;22.43;17.40;;;;;;;12.19;100.00;102912.89;1826962;78;26216;-73
2021/05/30 07:18:12;;;;;;;25.40;19.10;;;;;;;12.15;100.00;102920.05;1828740;78;27973;-73
2021/05/30 07:20:44;;;;;;;25.57;18.80;;;;;;;12.21;100.00;102922.69;1828706;78;26663;-73
2021/05/30 07:23:15;;;;;;;23.97;17.40;;;;;;;12.17;100.00;102921.48;1824973;78;26232;-73
2021/05/30 07:25:45;;;;;;;25.43;18.43;;;;;;;12.33;100.00;102919.31;1825538;78;26649;-73
2021/05/30 07:28:15;;;;;;;22.33;16.90;;;;;;;12.17;100.00;102923.42;1820943;78;26662;-72
2021/05/30 07:30:45;;;;;;;25.30;18.70;;;;;;;12.20;100.00;102929.88;1825511;78;26317;-70
2021/05/30 07:33:15;;;;;;;26.73;18.90;;;;;;;12.20;100.00;102918.73;1828678;78;26207;-73
2021/05/30 07:35:45;;;;;;;25.17;18.43;;;;;;;12.16;100.00;102918.93;1828651;78;26733;-73
2021/05/30 07:38:16;;;;;;;24.20;17.90;;;;;;;12.20;100.00;102918.20;1827888;78;26215;-72
2021/05/30 07:40:46;;;;;;;20.73;16.23;;;;;;;12.31;100.00;102918.73;1823470;78;26336;-73
2021/05/30 07:43:16;;;;;;;19.73;14.90;;;;;;;12.31;100.00;102915.09;1827787;78;26300;-71
2021/05/30 07:45:46;;;;;;;20.63;15.83;;;;;;;12.41;100.00;102919.47;1828672;78;26219;-71
2021/05/30 07:48:16;;;;;;;20.30;15.07;;;;;;;12.33;100.00;102916.53;1828292;78;26208;-72
2021/05/30 07:50:46;;;;;;;21.83;15.90;;;;;;;12.42;100.00;102922.56;1821915;78;26277;-72
2021/05/30 07:53:17;;;;;;;20.47;15.20;;;;;;;12.52;100.00;102922.78;1828643;78;26286;-72
2021/05/30 07:55:47;;;;;;;19.77;15.27;;;;;;;12.56;100.00;102925.37;1824973;78;26212;-71
2021/05/30 07:58:17;;;;;;;18.90;15.80;;;;;;;12.44;100.00;102919.54;1828625;78;26238;-73
2021/05/30 08:00:48;;;;;;;20.83;15.00;;;;;;;12.48;100.00;102924.92;1825242;78;26231;-73
2021/05/30 08:03:18;;;;;;;18.70;15.50;;;;;;;12.61;100.00;102917.66;1828686;78;26705;-71
2021/05/30 08:05:48;;;;;;;20.57;15.30;;;;;;;12.74;100.00;102921.00;1828660;78;26729;-73
2021/05/30 08:08:18;;;;;;;21.07;14.40;;;;;;;12.74;100.00;102915.42;1828696;78;26283;-70
2021/05/30 08:10:48;;;;;;;19.67;15.00;;;;;;;12.96;100.00;102916.95;1828745;78;26301;-72
2021/05/30 08:13:18;;;;;;;20.57;14.87;;;;;;;12.98;100.00;102909.70;1828702;76;26303;-73
2021/05/30 08:15:48;;;;;;;19.23;15.30;;;;;;;12.94;100.00;102916.34;1828740;78;26260;-72
2021/05/30 08:18:18;;;;;;;17.47;14.13;;;;;;;13.01;100.00;102907.80;1824996;78;26290;-72
2021/05/30 08:20:49;;;;;;;16.50;14.20;;;;;;;13.03;100.00;102910.66;1828785;78;26236;-70
2021/05/30 08:23:19;;;;;;;16.40;13.43;;;;;;;13.05;100.00;102907.63;1828819;78;26252;-71
2021/05/30 08:25:48;;;;;;;16.90;13.30;;;;;;;13.13;100.00;102903.91;1824314;78;26747;-71
2021/05/30 08:28:19;;;;;;;16.30;12.33;;;;;;;13.18;100.00;102901.72;1819848;79;26270;-71
2021/05/30 08:30:48;;;;;;;17.00;13.27;;;;;;;13.44;100.00;102893.22;1824102;78;26227;-72
2021/05/30 08:33:18;;;;;;;15.00;12.57;;;;;;;13.63;100.00;102893.26;1826566;78;26787;-72
2021/05/30 08:35:48;;;;;;;14.83;13.23;;;;;;;13.65;100.00;102896.08;1823745;78;26685;-72
2021/05/30 08:38:18;;;;;;;14.43;12.33;;;;;;;13.81;100.00;102895.77;1826762;78;26292;-72
2021/05/30 08:40:50;;;;;;;14.83;11.97;;;;;;;13.89;100.00;102893.94;1823545;78;26223;-71
2021/05/30 08:43:20;;;;;;;14.70;11.80;;;;;;;13.93;100.00;102897.90;1819801;79;26277;-72
2021/05/30 08:45:52;;;;;;;14.53;11.90;;;;;;;14.12;100.00;102897.02;1827183;78;26233;-71
2021/05/30 08:48:21;;;;;;;13.43;11.73;;;;;;;14.10;100.00;102895.05;1827126;78;26222;-72
2021/05/30 08:51:03;;;;;;;14.23;11.60;;;;;;;14.15;100.00;102895.13;1823538;78;26744;-71
2021/05/30 08:53:37;;;;;;;13.37;11.27;;;;;;;14.33;100.00;102896.20;1823521;78;26764;-70
2021/05/30 08:56:09;;;;;;;14.17;10.37;;;;;;;14.56;100.00;102885.30;1823937;78;26218;-72
2021/05/30 08:58:42;;;;;;;11.37;9.67;;;;;;;14.82;100.00;102887.27;1825120;78;26239;-72
2021/05/30 09:01:15;;;;;;;11.50;9.97;;;;;;;14.95;100.00;102892.98;1824547;78;26705;-72
2021/05/30 09:04:03;;;;;;;11.47;9.90;;;;;;;15.29;100.00;102885.17;1825945;78;26310;-72
2021/05/30 09:06:31;;;;;;;9.40;8.33;;;;;;;15.67;100.00;102875.13;1826637;78;26251;-72
2021/05/30 09:09:02;;;;;;;9.57;8.53;;;;;;;15.84;100.00;102871.59;1823483;78;26698;-72
2021/05/30 09:11:43;;;;;;;9.10;8.20;;;;;;;15.96;100.00;102876.97;1821098;78;26271;-71
2021/05/30 09:14:17;;;;;;;9.67;8.17;;;;;;;16.16;100.00;102874.84;1821210;78;26799;-71
2021/05/30 09:16:57;;;;;;;9.93;8.50;;;;;;;15.79;100.00;102872.11;1822976;78;26285;-71
2021/05/30 09:19:43;;;;;;;7.77;6.97;;;;;;;15.77;100.00;102871.00;1827882;78;26325;-72
2021/05/30 09:22:29;;;;;;;11.87;8.80;;;;;;;15.96;100.00;102872.77;1828750;78;26240;-73
2021/05/30 09:25:21;;;;;;;8.83;7.77;;;;;;;16.02;100.00;102873.09;1828749;78;26248;-72
2021/05/30 09:27:54;;;;;;;10.50;8.03;;;;;;;16.05;100.00;102866.93;1824967;78;26233;-73
2021/05/30 09:30:28;;;;;;;10.23;9.00;;;;;;;16.31;100.00;102865.92;1825026;78;26345;-73
2021/05/30 09:33:03;;;;;;;9.77;8.73;;;;;;;16.34;100.00;102856.95;1828772;78;26260;-72
2021/05/30 09:36:00;;;;;;;10.40;8.20;;;;;;;16.30;100.00;102861.43;1828489;78;26735;-72
2021/05/30 09:38:36;;;;;;;7.70;6.90;;;;;;;16.54;100.00;102857.59;1823611;78;26328;-73
2021/05/30 09:41:10;;;;;;;8.33;6.93;;;;;;;16.79;100.00;102861.88;1825022;78;26337;-72
2021/05/30 09:43:48;;;;;;;8.83;7.10;;;;;;;16.84;100.00;102856.84;1824999;78;26308;-72
2021/05/30 09:46:19;;;;;;;8.17;7.07;;;;;;;17.10;100.00;102849.28;1824999;78;26291;-72
2021/05/30 09:48:59;;;;;;;8.33;6.83;;;;;;;16.88;100.00;102848.14;1827885;78;26832;-71
2021/05/30 09:51:37;;;;;;;8.37;7.50;;;;;;;16.71;100.00;102855.97;1826661;78;26260;-73
2021/05/30 09:54:11;;;;;;;7.90;7.10;;;;;;;16.77;100.00;102846.45;1828698;78;26323;-71
2021/05/30 09:56:43;;;;;;;9.07;7.70;;;;;;;17.06;100.00;102847.60;1821493;78;26213;-72
2021/05/30 09:59:15;;;;;;;9.13;8.23;;;;;;;17.06;100.00;102849.00;1825281;78;26243;-75
2021/05/30 10:01:54;;;;;;;9.20;7.23;;;;;;;16.91;100.00;102845.33;1825200;78;26295;-74
2021/05/30 10:04:27;;;;;;;8.97;7.80;;;;;;;17.00;100.00;102854.32;1828741;78;26237;-74
2021/05/30 10:06:58;;;;;;;8.27;7.43;;;;;;;17.10;100.00;102852.94;1828682;78;26324;-75
2021/05/30 10:09:29;;;;;;;10.10;8.43;;;;;;;17.21;100.00;102852.35;1828638;78;26227;-74
2021/05/30 10:12:00;;;;;;;9.57;8.07;;;;;;;16.99;100.00;102851.78;1825146;78;26725;-74
2021/05/30 10:14:31;;;;;;;9.33;8.43;;;;;;;17.12;100.00;102849.82;1822762;78;26265;-71
2021/05/30 10:17:02;;;;;;;8.90;7.97;;;;;;;17.25;100.00;102844.48;1823528;78;24160;-73
2021/05/30 10:19:36;;;;;;;9.57;7.87;;;;;;;17.32;100.00;102844.22;1819720;79;26326;-72
2021/05/30 10:22:07;;;;;;;10.63;9.33;;;;;;;17.04;100.00;102852.64;1819846;79;26766;-72
2021/05/30 10:24:41;;;;;;;11.00;9.07;;;;;;;17.04;100.00;102852.64;1821986;78;26671;-72
2021/05/30 10:27:23;;;;;;;9.63;8.73;;;;;;;17.31;100.00;102850.95;1828384;78;26359;-72
2021/05/30 10:30:19;;;;;;;9.00;8.10;;;;;;;17.08;100.00;102849.55;1822348;78;24234;-72
2021/05/30 10:32:55;;;;;;;9.30;7.93;;;;;;;17.24;100.00;102849.81;1813287;78;26214;-75
2021/05/30 10:35:27;;;;;;;9.73;8.73;;;;;;;17.60;100.00;102839.98;1822802;78;26732;-75
2021/05/30 10:37:58;;;;;;;9.27;8.07;;;;;;;17.79;100.00;102840.23;1823566;78;24164;-75
2021/05/30 10:40:40;;;;;;;10.27;9.27;;;;;;;17.58;100.00;102843.09;1828153;78;26705;-75
2021/05/30 10:43:22;;;;;;;12.10;9.17;;;;;;;17.33;100.00;102843.07;1828663;78;26239;-72
2021/05/30 10:46:05;;;;;;;11.00;9.87;;;;;;;17.28;100.00;102843.91;1824992;78;26642;-75
2021/05/30 10:48:38;;;;;;;11.47;9.07;;;;;;;17.25;100.00;102843.09;1828862;78;26250;-75
2021/05/30 10:51:33;;;;;;;10.07;9.07;;;;;;;17.57;100.00;102828.73;1837205;78;24163;-72
2021/05/30 10:54:10;;;;;;;11.07;9.93;;;;;;;17.58;100.00;102833.27;1827533;78;24169;-75
2021/05/30 10:56:43;;;;;;;11.63;10.37;;;;;;;17.64;100.00;102826.48;1824974;78;26229;-73
2021/05/30 10:59:27;;;;;;;13.87;12.13;;;;;;;17.53;100.00;102833.23;1825525;78;26232;-76
2021/05/30 11:01:59;;;;;;;13.73;11.87;;;;;;;17.39;100.00;102824.25;1833468;78;26787;-72
2021/05/30 11:04:37;;;;;;;10.13;9.10;;;;;;;17.41;100.00;102821.45;1827746;78;26714;-74
2021/05/30 11:07:38;;;;;;;12.30;10.33;;;;;;;17.59;100.00;102815.25;1825821;78;26225;-72
2021/05/30 11:10:13;;;;;;;13.33;10.93;;;;;;;17.74;100.00;102821.41;1828708;78;26225;-72
2021/05/30 11:12:58;;;;;;;14.20;12.57;;;;;;;17.58;100.00;102810.77;1824357;78;26650;-74
2021/05/30 11:15:33;;;;;;;11.33;9.47;;;;;;;17.58;100.00;102810.77;1826872;77;26267;-74
2021/05/30 11:18:05;;;;;;;14.40;12.57;;;;;;;18.06;100.00;102800.73;1828667;78;26309;-75
2021/05/30 11:20:44;;;;;;;17.07;13.27;;;;;;;17.72;100.00;102803.41;1821387;78;26703;-74
2021/05/30 11:23:19;;;;;;;13.60;12.00;;;;;;;17.54;100.00;102795.55;1828242;78;26276;-71
2021/05/30 11:25:53;;;;;;;13.00;11.60;;;;;;;17.72;100.00;102787.95;1823947;78;26757;-75